eplan.dot.il.gov - /desenv/042304/electronicstandards/


[To Parent Directory]

Monday, January 26, 2004 7:57 PM 640493 205-000001-04_StandardSymbolsAbbreviations&Patterns.pdf
Monday, January 26, 2004 7:58 PM 115448 205-001001_AreasOfReinfRebars.pdf
Monday, January 26, 2004 7:59 PM 146689 205-001006_DecimalOfInch&Foot.pdf
Monday, January 26, 2004 8:00 PM 58973 205-202001_EarthMedDitchCheck.pdf
Monday, January 26, 2004 8:01 PM 262309 205-280001-02_TempErosionCntrlSystems.pdf
Monday, January 26, 2004 8:01 PM 115245 205-285001-01_FabricFormedConcRevetmentMat.pdf
Tuesday, January 27, 2004 2:43 PM 101927 205-353001-01_PCCBseCseWithBitConcBind&SurfCses.pdf
Monday, January 26, 2004 8:14 PM 235400 205-406001-02_EntrRampTerminalFlexiblePvmt.pdf
Monday, January 26, 2004 8:15 PM 366694 205-406101-02_ExitRampTerminalFlexiblePvmt.pdf
Monday, January 26, 2004 8:16 PM 83480 205-406201_MailboxTurnout.pdf
Monday, January 26, 2004 8:17 PM 226582 205-420001-05_PavementJoints.pdf
Monday, January 26, 2004 8:17 PM 96950 205-420101-02_24ftJointedPCCPvmt.pdf
Monday, January 26, 2004 8:18 PM 114490 205-420106-02_36ftJointedPCCPvmt.pdf
Monday, January 26, 2004 8:18 PM 284814 205-420111-01_PCCPvmtRoundouts.pdf
Monday, January 26, 2004 8:19 PM 292202 205-420201-04_EntrRampTerm-PCCAdjToPCC.pdf
Monday, January 26, 2004 8:20 PM 293658 205-420206-05_EntrRampTerm-PCCAdjToCRC.pdf
Monday, January 26, 2004 8:21 PM 443184 205-420301-03_ExitRampTerm-PCCAdjToPCC.pdf
Monday, January 26, 2004 8:22 PM 437511 205-420306-05_ExitRampTerm-PCCAdjToCRC.pdf
Monday, January 26, 2004 8:23 PM 454844 205-420401-05_BridgeApproachPvmt.pdf
Monday, January 26, 2004 8:24 PM 100512 205-420501-02_PCCPvmt&PCCBseCseAdjToRRGradeXing.pdf
Monday, January 26, 2004 8:24 PM 77896 205-420601-03_24ftPCCPvmt.pdf
Monday, January 26, 2004 8:25 PM 114825 205-420701-01_PavementFabric.pdf
Monday, January 26, 2004 8:25 PM 124373 205-421001-01_BarReinfForCRCPvmt.pdf
Monday, January 26, 2004 8:26 PM 431166 205-421101-05_24ftCRCPvmt-wWideFlangeBeamTermJt.pdf
Monday, January 26, 2004 9:00 PM 438611 205-421106-05_36ftCRCPvmt-wWideFlangeBeamTermJt.pdf
Monday, January 26, 2004 9:01 PM 318769 205-421201-04_24ftCRCPvmt-wLugSys.pdf
Monday, January 26, 2004 9:01 PM 342198 205-421206-04_36ftCRCPvmt-wLugSys.pdf
Monday, January 26, 2004 9:02 PM 199254 205-424001-03_CurbRampsForSidewalk.pdf
Monday, January 26, 2004 9:02 PM 188238 205-442001-02_ClassAPatches.pdf
Monday, January 26, 2004 9:03 PM 279601 205-442101-05_ClassBPatches.pdf
Monday, January 26, 2004 9:03 PM 138619 205-442201-01_ClassC&DPatches.pdf
Monday, January 26, 2004 9:04 PM 117343 205-482001_BitShldAdjToFlexPvmt.pdf
Monday, January 26, 2004 9:04 PM 115560 205-482006-01_BitShldAdjToRigidPvmt.pdf
Monday, January 26, 2004 9:05 PM 221279 205-482011-01_BitShldStrips(Shlds)wResurfOrWiden&ResurfProj.pdf
Monday, January 26, 2004 9:05 PM 163770 205-483001-01_PCCShld.pdf
Tuesday, January 27, 2004 8:36 AM 101804 205-503001-02_ConcParapetSlip-FormingOpt.pdf
Tuesday, January 27, 2004 8:38 AM 264778 205-509001_TubularThrieBeamRetrofitRailForBridge.pdf
Tuesday, January 27, 2004 8:52 AM 122999 205-515001-02_NamePlateForBridge.pdf
Tuesday, January 27, 2004 8:54 AM 107204 205-542001_ReinfConcEndSect-wParallelWngwalls12-48inDiaRtAngle.pdf
Tuesday, January 27, 2004 8:54 AM 139192 205-542101_ReinfConcEndSectForPipeCulv15-36inDiaRtAngle.pdf
Tuesday, January 27, 2004 8:55 AM 242457 205-542106_ReinfConcEndSectForPipeCulv42-60inDiaRtAngle.pdf
Tuesday, January 27, 2004 8:55 AM 264924 205-542111_ReinfConcEndSectForPipeCulv66-84inDiaRtAngle.pdf
Tuesday, January 27, 2004 8:56 AM 326356 205-542116_ReinfConcEndSectForMultPipeCulv15-36inDiaRtAngle.pdf
Tuesday, January 27, 2004 8:57 AM 351105 205-542121_ReinfConcEndSectForMultPipeCulv42-60inDiaRtAngle.pdf
Tuesday, January 27, 2004 8:58 AM 1337945 205-542201_ReinfConcEndSectForPipeCulv15-36inDiaSkewed.pdf
Tuesday, January 27, 2004 9:03 AM 903689 205-542206_ReinfConcEndSectForPipeCulv42-60inDiaSkewed.pdf
Tuesday, January 27, 2004 9:03 AM 144977 205-542301_PrecastReinfConcFlaredEndSect.pdf
Tuesday, January 27, 2004 9:04 AM 120992 205-542306_PrecastReinfConcEllipticalFlaredEndSect.pdf
Tuesday, January 27, 2004 9:04 AM 286695 205-542311_GratingForConcFlaredEndSection24-54inPipe.pdf
Tuesday, January 27, 2004 9:04 AM 176715 205-542401_MetalEndSectForPipeCulv.pdf
Tuesday, January 27, 2004 9:05 AM 175449 205-542406_MetalEndSectForPipeArch.pdf
Tuesday, January 27, 2004 9:05 AM 181065 205-542501_InletBoxTypeA24in.pdf
Tuesday, January 27, 2004 9:05 AM 208491 205-542506_InletBoxTypeB24in.pdf
Tuesday, January 27, 2004 9:06 AM 207145 205-542511_InletBoxTypeC24in.pdf
Tuesday, January 27, 2004 9:08 AM 224842 205-542516_InletBoxTypeD24in.pdf
Tuesday, January 27, 2004 9:08 AM 225954 205-542521_InletBoxTypeE24in.pdf
Tuesday, January 27, 2004 9:09 AM 254257 205-542526_InletBoxTypeF24in.pdf
Tuesday, January 27, 2004 9:09 AM 225550 205-542531-01_InletBoxTypeG24in.pdf
Tuesday, January 27, 2004 9:10 AM 239934 205-542536_InletBoxTypeA36in.pdf
Tuesday, January 27, 2004 9:10 AM 240418 205-542541_InletBoxTypeA48in.pdf
Tuesday, January 27, 2004 9:10 AM 141926 205-542546_FlushInletBoxForMedian.pdf
Tuesday, January 27, 2004 9:11 AM 74588 205-542601_RCPipeElbow.pdf
Tuesday, January 27, 2004 9:11 AM 166642 205-542606_RCPipeTee.pdf
Tuesday, January 27, 2004 11:34 AM 266503 205-601001_SubSurfDrains.pdf
Tuesday, January 27, 2004 11:34 AM 63676 205-601101_ConcHdwForPipeDrain.pdf
Tuesday, January 27, 2004 11:35 AM 132385 205-602001_CatchBasin-TypeA.pdf
Tuesday, January 27, 2004 11:35 AM 119787 205-602006_CatchBasin-TypeB.pdf
Tuesday, January 27, 2004 11:36 AM 71075 205-602011_CatchBasin-TypeC.pdf
Tuesday, January 27, 2004 11:36 AM 145380 205-602016_CatchBasin-TypeD.pdf
Saturday, March 06, 2004 9:41 AM 212719 205-602101-01_DrainStruc-Type1&2&3.pdf
Saturday, March 06, 2004 9:41 AM 210959 205-602106_DrainStruc-Type4&5&6.pdf
Tuesday, January 27, 2004 11:36 AM 66596 205-602301_Inlet-TypeA.pdf
Tuesday, January 27, 2004 11:37 AM 123070 205-602306_Inlet-TypeB.pdf
Tuesday, January 27, 2004 11:37 AM 109027 205-602401_Manhole-TypeA.pdf
Tuesday, January 27, 2004 11:37 AM 197432 205-602406-01_Manhole-TypeA72inDia.pdf
Tuesday, January 27, 2004 11:38 AM 104821 205-602501_ValveVault-TypeA.pdf
Tuesday, January 27, 2004 11:38 AM 113395 205-602601_PrecastReinfConcFlatSlabTop.pdf
Tuesday, January 27, 2004 11:38 AM 57172 205-602701_CastIronSteps.pdf
Tuesday, January 27, 2004 11:38 AM 70899 205-604001-02_Frame&Lids-Type1.pdf
Tuesday, January 27, 2004 11:38 AM 84914 205-604006-02_Frame&GrateType3.pdf
Tuesday, January 27, 2004 11:39 AM 90782 205-604011-02_Frame&GrateType3V.pdf
Tuesday, January 27, 2004 11:39 AM 53928 205-604016-01_Frame&GrateType4.pdf
Tuesday, January 27, 2004 11:39 AM 91860 205-604021-01_BaseFrame&LidsType5.pdf
Tuesday, January 27, 2004 11:39 AM 71835 205-604026-01_Frame&GrateType6.pdf
Tuesday, January 27, 2004 11:40 AM 37966 205-604031-01_GrateType7.pdf
Tuesday, January 27, 2004 11:40 AM 42341 205-604036-01_GrateType8.pdf
Tuesday, January 27, 2004 11:40 AM 60716 205-604041-01_Frame&GrateType9.pdf
Tuesday, January 27, 2004 11:40 AM 61131 205-604046-01_Frame&GrateType10.pdf
Tuesday, January 27, 2004 11:40 AM 80781 205-604051-01_Frame&GrateType11.pdf
Tuesday, January 27, 2004 11:41 AM 93508 205-604056-01_Frame&GrateType11V.pdf
Tuesday, January 27, 2004 11:41 AM 66719 205-604061-01_Frame&GrateType12.pdf
Tuesday, January 27, 2004 11:41 AM 96180 205-604066-01_Frame&LidType15.pdf
Tuesday, January 27, 2004 11:41 AM 70946 205-604071-02_Frame&GrateType20.pdf
Tuesday, January 27, 2004 11:42 AM 94861 205-604076-02_Frame&GrateType21.pdf
Tuesday, January 27, 2004 11:42 AM 83646 205-604081-02_Frame&GrateType22.pdf
Tuesday, January 27, 2004 11:42 AM 97450 205-604086-01_Frame&GrateType23.pdf
Tuesday, January 27, 2004 11:42 AM 93796 205-604091-01_Frame&GrateType24.pdf
Tuesday, January 27, 2004 11:42 AM 107533 205-604101_MedianInletFor24inRCPipe.pdf
Tuesday, January 27, 2004 11:43 AM 112586 205-604106_MedianInletFor36inRCPipe.pdf
Tuesday, January 27, 2004 11:43 AM 276500 205-606001-02_ConcCurbTypeB&ComboConcC&G.pdf
Tuesday, January 27, 2004 11:43 AM 278033 205-606006_OutletsForConcC&G-TypeB-6.24.pdf
Tuesday, January 27, 2004 11:44 AM 210909 205-606101-01_TypeAGut-InlOutl&Entr.pdf
Tuesday, January 27, 2004 11:44 AM 123335 205-606106-02_OutlType1ForTypeAGut.pdf
Tuesday, January 27, 2004 11:44 AM 135113 205-606111-01_OutlType2ForTypeAGut.pdf
Tuesday, January 27, 2004 11:44 AM 197828 205-606201_TypeBGut-InlOutl&Entr.pdf
Tuesday, January 27, 2004 11:44 AM 117425 205-606206-01_OutlType1ForTypeBGut.pdf
Tuesday, January 27, 2004 11:45 AM 133339 205-606211-01_OutlType2ForTypeBGut.pdf
Tuesday, January 27, 2004 11:45 AM 302914 205-606301-02_PCCIslands&Medians.pdf
Tuesday, January 27, 2004 11:45 AM 113248 205-606306-01_CorrugatedPCCMedians.pdf
Tuesday, January 27, 2004 11:45 AM 145960 205-606401_PavedDitch.pdf
Tuesday, January 27, 2004 11:47 AM 263912 205-609001-02_BridgeApproachShldPvmt&Drain.pdf
Tuesday, January 27, 2004 11:47 AM 253904 205-609006-02_BridgeApproachPvmt(DrainDetail).pdf
Tuesday, January 27, 2004 11:48 AM 252181 205-610001-02_ShldInletWithCurb.pdf
Wednesday, August 25, 2004 10:35 AM 424102 205-630001-05_SteelPlateBeamGrdrail.pdf
Wednesday, August 25, 2004 10:37 AM 194212 205-630101-05_GuardrailMountedOnExCulv.pdf
Friday, August 27, 2004 3:07 PM 121430 205-630201-03_PCC-BitStb@SteelPlateBeamGrdRail.pdf
Wednesday, August 25, 2004 10:39 AM 135133 205-630301-03_ShldWidenForType1GrdrailTerms.pdf
Tuesday, January 27, 2004 11:56 AM 85879 205-631006-03_TrafBarTermType1B.pdf
Tuesday, January 27, 2004 11:57 AM 115013 205-631011-02_TrafBarTermType2.pdf
Tuesday, January 27, 2004 11:57 AM 172822 205-631026-02_TrafBarTermType5&5A.pdf
Tuesday, January 27, 2004 11:57 AM 229027 205-631031-05_TrafBarTermType6.pdf
Tuesday, January 27, 2004 11:58 AM 270196 205-631032-01_TrafBarTermType6A.pdf
Tuesday, January 27, 2004 11:58 AM 172770 205-631033-01 TrafBarTermType6B.pdf
Tuesday, January 27, 2004 11:58 AM 136547 205-631036-04_TrafBarTermType8.pdf
Tuesday, January 27, 2004 11:59 AM 132666 205-631041-01_TrafBarTermType9.pdf
Tuesday, January 27, 2004 11:59 AM 103473 205-631046-02_TrafBarTermType10.pdf
Tuesday, January 27, 2004 11:59 AM 142335 205-631051-01_TrafBarTermType11.pdf
Tuesday, January 27, 2004 11:59 AM 121692 205-631056-01_TrafBarTermType12.pdf
Tuesday, January 27, 2004 12:00 PM 204797 205-635001_Delineators.pdf
Tuesday, January 27, 2004 12:08 PM 90254 205-635006-02_Reflector&TermMrkrPlacemnt.pdf
Tuesday, January 27, 2004 12:09 PM 166549 205-635011-01_ReflectorMrkr&MountDetails.pdf
Wednesday, August 25, 2004 10:40 AM 398862 205-636001-01_CableRdGrd-SingleStrand.pdf
Tuesday, January 27, 2004 12:10 PM 156112 205-637001-02_ConcBarrierDblFace32in.pdf
Tuesday, January 27, 2004 12:10 PM 154080 205-637006_ConcBarrierDblFace42in.pdf
Tuesday, January 27, 2004 12:10 PM 89545 205-638001-01_GlareScreenBlades.pdf
Tuesday, January 27, 2004 12:11 PM 60980 205-638101-01_ConcGlareScreen.pdf
Tuesday, January 27, 2004 12:11 PM 206466 205-639001_Sightscrn-PrecstPrestressConcPanelWall.pdf
Tuesday, January 27, 2004 12:11 PM 268068 205-640001_Sightscrn-ChainLinkFence.pdf
Tuesday, January 27, 2004 12:11 PM 115774 205-641001_Sightscrn-CedarStckadeFenceTypeS.pdf
Tuesday, January 27, 2004 12:12 PM 108848 205-641006_Sightscrn-WoodPlankFenceTypeP.pdf
Tuesday, January 27, 2004 12:12 PM 91312 205-642001_ShldRumbleStrips.pdf
Tuesday, January 27, 2004 12:17 PM 452255 205-664001-01_ChainLinkFence.pdf
Tuesday, January 27, 2004 12:17 PM 552190 205-665001-01_WovenWireFence.pdf
Tuesday, January 27, 2004 12:17 PM 84509 205-666001_ROWMrkrs.pdf
Tuesday, January 27, 2004 12:18 PM 59971 205-667001_DrainageMrkrs.pdf
Tuesday, January 27, 2004 12:18 PM 92973 205-667101_PermanentSurveyMrkrs.pdf
Tuesday, January 27, 2004 12:18 PM 45511 205-668001 _MethOfResetting-USGS&NGS-Benchmarks.pdf
Wednesday, August 25, 2004 9:00 AM 58346 205-701001-01_OffRdOp-2L2W-15ftMinFromEOP-45MPH+.pdf
Wednesday, August 25, 2004 9:00 AM 93806 205-701006-02_OffRdOp-2L2W-15ftToEOP-45MPH+.pdf
Wednesday, August 25, 2004 9:01 AM 91589 205-701011-01_OffRdMovingOp-2L2W-DayOnly-45MPH+.pdf
Wednesday, August 25, 2004 9:02 AM 96092 205-701101-01_OffRdOp-MultiLn-LessThan15ftToEOP.pdf
Wednesday, August 25, 2004 9:03 AM 62359 205-701106-01_OffRdOp-MultiLn-MoreThan15ftAway.pdf
Wednesday, August 25, 2004 9:04 AM 107887 205-701201-02_LnClosure2L2W-DayOnly.pdf
Wednesday, August 25, 2004 9:05 AM 92670 205-701206-01_LnClosure2L2W-NightOnly45MPH+.pdf
Wednesday, August 25, 2004 9:21 AM 97847 205-701301-02_LnClosure2L2W-ShortTimeOp.pdf
Wednesday, August 25, 2004 9:22 AM 107890 205-701306-01_LnClosure2L2W-SlowMoveOpDayOnly45MPH+.pdf
Tuesday, January 27, 2004 12:23 PM 81284 205-701311-02_LnClosure2L2W-MovingOpDayOnly.pdf
Wednesday, August 25, 2004 10:40 AM 201482 205-701316-03_LnClosure2L2W-BridgeRepair45MPH+.pdf
Wednesday, August 25, 2004 10:42 AM 238509 205-701321-08_LnClosure2L2W-BridgeRepair+Barrier.pdf
Wednesday, August 25, 2004 9:27 AM 120567 205-701326-02_LnClosure2L2W-PvmtWidening45MPH+.pdf
Wednesday, August 25, 2004 9:28 AM 145928 205-701331-02_LnClosure2L2W+RunAround45MPH+.pdf
Wednesday, August 25, 2004 9:29 AM 146653 205-701336-04_LnClosure2L2W-WorkAreasInSeries45MPH+.pdf
Wednesday, August 25, 2004 9:31 AM 132832 205-701400-02_ApprchToLnClosure-FrwayExpway.pdf
Wednesday, August 25, 2004 9:33 AM 157623 205-701401-03_LnClosureFrwayExpway.pdf
Wednesday, April 07, 2004 8:50 AM 113984 205-701402-05_LnClosureFrwayExpway+Barrier.pdf
Wednesday, April 07, 2004 8:51 AM 115776 205-701406-04_LnClosureFrwayExpway-DayOpOnly.pdf
Wednesday, August 25, 2004 10:42 AM 279793 205-701411-03_LnClosureMultiLn-EntrOrExitRamp45MPH+.pdf
Wednesday, April 07, 2004 8:52 AM 129893 205-701416-05_LnClosureFrwayExpway+Crossover&Barrier.pdf
Wednesday, April 07, 2004 8:53 AM 129587 205-701421-01_LnClosureMultiLn-DayOpOnly45-55MPH.pdf
Wednesday, April 07, 2004 9:00 AM 154234 205-701422-01_LnClosureMultiLn-45-55MPH.pdf
Wednesday, April 07, 2004 9:01 AM 148469 205-701423-01_LnClosureMultiLn+Barrier45-55MPH.pdf
Wednesday, August 25, 2004 9:36 AM 148859 205-701426-02_LnClosureMultiLn-IntermittantOrMovingOp45MPH+.pdf
Wednesday, April 07, 2004 9:01 AM 158252 205-701431-03_LnClosureMultiLnUndivided+Crossover45-55MPH.pdf
Wednesday, August 25, 2004 9:36 AM 172332 205-701446_TwoLnClosure-FrwayExpway.pdf
Wednesday, August 25, 2004 9:37 AM 116279 205-701501-03_UrbanLnClosure2L2W-Undivided.pdf
Wednesday, August 25, 2004 10:44 AM 195131 205-701502-01_UrbanLnClosure2L2W+BidirectLeftTurnLn.pdf
Wednesday, August 25, 2004 10:44 AM 179342 205-701601-04_UrbanLnClosureMultiLn1W2W+NontrvsableMed.pdf
Wednesday, August 25, 2004 10:46 AM 324298 205-701602-02_UrbanLnClosureMultiLn2W+BidirectLeftTurnLn.pdf
Wednesday, August 25, 2004 10:47 AM 186048 205-701606-04_UrbanLnClosureMultiLn2W+MountableMed.pdf
Wednesday, August 25, 2004 9:44 AM 141914 205-701701-04_UrbanLnClosureMultiLnIntersection.pdf
Tuesday, January 27, 2004 12:30 PM 115779 205-701801-03_LnClosureMultiLn1W2W+CrosswalkOrSWClosure.pdf
Wednesday, August 25, 2004 10:47 AM 309630 205-702001-05_TrafCntrlDevices.pdf
Tuesday, January 27, 2004 12:31 PM 285327 205-704001-02_TempConcBarrier.pdf
Tuesday, January 27, 2004 12:32 PM 85098 205-720001_SignPanelMountDetails.pdf
Tuesday, January 27, 2004 12:38 PM 202083 205-720006_SignPanelErectDetails.pdf
Tuesday, January 27, 2004 12:39 PM 78871 205-720011_MetalPostsForSignsMrkrs&Delineators.pdf
Tuesday, January 27, 2004 12:39 PM 105298 205-720016-01_MastArmMountedStNameSigns.pdf
Tuesday, January 27, 2004 12:39 PM 159575 205-720021-01_SignPanels-ExtrudedAlumType.pdf
Tuesday, January 27, 2004 12:40 PM 104704 205-729001_AppOfTypesA&BPosts.pdf
Tuesday, January 27, 2004 12:31 PM 175191 205-780001-01_TypicalPvmtMrkings.pdf
Tuesday, January 27, 2004 12:31 PM 101279 205-781001-02_TypicalAppRaisedReflcPvmtMrkrs.pdf
Tuesday, January 27, 2004 12:26 PM 102029 205-805001_ElecSrvcInstallDetails.pdf
Tuesday, January 27, 2004 12:26 PM 45497 205-813001-01_JunctionBoxes.pdf
Tuesday, January 27, 2004 12:27 PM 89836 205-814001_ConcHandholes.pdf
Tuesday, January 27, 2004 12:27 PM 117545 205-814006_DblHandholes.pdf
Tuesday, January 27, 2004 12:28 PM 123069 205-857001_StdPhaseDesignationDiagrams&PhaseSeq.pdf
Tuesday, January 27, 2004 12:28 PM 81117 205-857006_SupervisedRRInterconnectCircuit-.pdf
Wednesday, August 25, 2004 9:47 AM 105266 205-877001-02_SteelMastArmAssembly&Pole.pdf
Wednesday, August 25, 2004 9:48 AM 127502 205-877006-02_SteelMastArmAssembly&Pole+DualMastArms.pdf
Wednesday, August 25, 2004 9:49 AM 154319 205-877011-02_SteelComboMastArmAssembly&Pole.pdf
Wednesday, August 25, 2004 10:48 AM 224484 205-878001-03_ConcreteFoundationDetails.pdf
Tuesday, January 27, 2004 12:29 PM 119894 205-880001_SpanWireMountSignals&FlashBeaconInstall.pdf
Tuesday, January 27, 2004 12:29 PM 76503 205-880006_TrfSignalMountDetails-Post&BracketMount.pdf
Tuesday, January 27, 2004 12:30 PM 118333 205-886001_DetectorLoopInstallations.pdf
Tuesday, January 27, 2004 12:30 PM 62053 205-886006_TypicalLayoutsForDetectionLoops.pdf
Wednesday, August 25, 2004 10:49 AM 330902 205-blr10-4_PCCPvmtSpecial-NonReinf.pdf
Wednesday, August 25, 2004 2:41 PM 236344 205-blr14-8_PCCPvmt-NonReinf.pdf
Tuesday, January 27, 2004 12:23 PM 147231 205-BLR17-3_TrafCntrlDevices-DayLaborConstr.pdf
Tuesday, January 27, 2004 12:23 PM 149205 205-BLR18-4_TrafCntrlDevices-DayLaborMaint.pdf
Tuesday, January 27, 2004 12:24 PM 254275 205-BLR20-4_TrafBarrierTermType5R.pdf
Tuesday, January 27, 2004 12:24 PM 122664 205-BLR21-6_TypAppTrafCntrlDevices-ConstrOnRuralLocalHwys.pdf
Tuesday, January 27, 2004 12:20 PM 129121 205-BLR2-2_CombSect&ROWMarkers.pdf
Tuesday, January 27, 2004 12:24 PM 104584 205-BLR22-4_TypAppTrafCntrlDevices-ConstrOnRuralLocalHwys(2L2W-RdClsdToThruTraf).pdf
Tuesday, January 27, 2004 12:25 PM 230928 205-BLR23-1_TrafBarrierTermType1.pdf
Tuesday, January 27, 2004 12:25 PM 91660 205-BLR24-1_MailboxTurn-LocalRds.pdf
Tuesday, January 27, 2004 12:25 PM 28243 205-BLR25_Type1ABarrForNonNHSRts.pdf
Tuesday, January 27, 2004 12:21 PM 93646 205-BLR6-5_SectMarkers.pdf